Time;durP1;ratioP1;P1;durP2;ratioP2;P2;SDS_P1;SDS_P2;PMS_P1;PMS_P2;Temp;Humidity;BMP_temperature;BMP_pressure;BME280_temperature;BME280_humidity;BME280_pressure;Samples;Min_cycle;Max_cycle;Signal;HPM_P1;HPM_P2
2023/09/28 00:01:58;;;;;;;10.77;8.80;;;13.50;99.90;;;;;;4889979;29;20088;-69
2023/09/28 00:04:25;;;;;;;13.88;8.82;;;13.40;99.90;;;;;;4878095;29;20043;-69
2023/09/28 00:06:57;;;;;;;9.77;8.77;;;13.40;99.90;;;;;;4875750;29;20053;-68
2023/09/28 00:09:29;;;;;;;10.18;8.75;;;13.30;99.90;;;;;;4862206;29;20045;-69
2023/09/28 00:12:02;;;;;;;10.93;8.77;;;13.30;99.90;;;;;;4876438;29;20063;-68
2023/09/28 00:14:34;;;;;;;9.52;8.52;;;13.30;99.90;;;;;;4869958;29;20061;-69
2023/09/28 00:17:02;;;;;;;12.07;9.88;;;13.30;99.90;;;;;;4886448;29;20055;-68
2023/09/28 00:19:34;;;;;;;12.00;9.65;;;13.30;99.90;;;;;;4871778;29;20524;-69
2023/09/28 00:22:06;;;;;;;11.27;9.70;;;13.20;99.90;;;;;;4887271;29;20045;-69
2023/09/28 00:24:38;;;;;;;10.10;9.07;;;13.20;99.90;;;;;;4883336;29;20044;-70
2023/09/28 00:27:10;;;;;;;14.05;9.80;;;13.20;99.90;;;;;;4876172;29;20052;-70
2023/09/28 00:29:38;;;;;;;10.32;9.25;;;13.20;99.90;;;;;;4860867;29;20097;-70
2023/09/28 00:32:10;;;;;;;10.63;9.52;;;13.20;99.90;;;;;;4864376;29;20105;-68
2023/09/28 00:34:42;;;;;;;11.68;9.93;;;13.20;99.90;;;;;;4861035;29;20063;-70
2023/09/28 00:37:14;;;;;;;13.85;9.10;;;13.20;99.90;;;;;;4876982;29;20049;-68
2023/09/28 00:39:47;;;;;;;9.13;8.20;;;13.10;99.90;;;;;;4861829;29;20057;-69
2023/09/28 00:42:18;;;;;;;8.82;8.00;;;13.20;99.90;;;;;;4881752;29;20136;-70
2023/09/28 00:44:51;;;;;;;11.00;8.95;;;13.20;99.90;;;;;;4878222;29;20528;-69
2023/09/28 00:47:23;;;;;;;9.73;8.73;;;13.20;99.90;;;;;;4887870;29;20513;-69
2023/09/28 00:49:55;;;;;;;10.00;7.97;;;13.20;99.90;;;;;;4886435;29;20042;-68
2023/09/28 00:52:27;;;;;;;10.32;8.73;;;13.10;99.90;;;;;;4869417;29;20037;-70
2023/09/28 00:54:59;;;;;;;10.93;8.65;;;13.20;99.90;;;;;;4870306;29;20049;-68
2023/09/28 00:57:33;;;;;;;11.00;8.40;;;13.10;99.90;;;;;;4866022;29;20052;-69
2023/09/28 01:00:18;;;;;;;8.85;7.80;;;13.10;99.90;;;;;;4864363;29;20128;-70
2023/09/28 01:02:51;;;;;;;9.02;8.13;;;13.00;99.90;;;;;;4880834;29;20041;-69
2023/09/28 01:05:33;;;;;;;9.48;8.23;;;13.00;99.90;;;;;;4877914;29;20088;-68
2023/09/28 01:08:14;;;;;;;9.48;8.45;;;13.00;99.90;;;;;;4882892;29;20049;-69
2023/09/28 01:10:46;;;;;;;9.93;8.45;;;13.00;99.90;;;;;;4871401;29;20548;-70
2023/09/28 01:13:23;;;;;;;9.20;7.78;;;13.00;99.90;;;;;;4891099;29;20052;-70
2023/09/28 01:15:55;;;;;;;10.05;8.57;;;13.00;99.90;;;;;;4893512;29;20048;-68
2023/09/28 01:18:22;;;;;;;11.43;8.23;;;13.00;99.90;;;;;;4890098;29;20143;-68
2023/09/28 01:20:51;;;;;;;10.88;8.35;;;12.90;99.90;;;;;;4890277;29;20100;-69
2023/09/28 01:23:18;;;;;;;11.98;8.35;;;12.90;99.90;;;;;;4855959;29;20516;-68
2023/09/28 01:25:49;;;;;;;10.10;8.68;;;12.90;99.90;;;;;;4889558;29;20047;-69
2023/09/28 01:28:21;;;;;;;12.05;9.30;;;12.90;99.90;;;;;;4862350;29;20057;-68
2023/09/28 01:30:52;;;;;;;9.48;7.95;;;12.90;99.90;;;;;;4862650;29;20053;-69
2023/09/28 01:33:24;;;;;;;13.02;9.38;;;12.80;99.90;;;;;;4890283;29;20051;-69
2023/09/28 01:35:56;;;;;;;9.85;8.85;;;12.80;99.90;;;;;;4865811;29;20464;-68
2023/09/28 01:38:38;;;;;;;9.93;8.93;;;12.80;99.90;;;;;;4862874;29;20053;-69
2023/09/28 01:41:11;;;;;;;9.90;8.90;;;12.70;99.90;;;;;;4861003;29;20060;-70
2023/09/28 01:43:38;;;;;;;10.07;8.70;;;12.70;99.90;;;;;;4880183;29;20043;-69
2023/09/28 01:46:11;;;;;;;10.05;8.43;;;12.70;99.90;;;;;;4886429;29;20049;-70
2023/09/28 01:48:43;;;;;;;11.63;9.27;;;12.70;99.90;;;;;;4860780;29;20068;-69
2023/09/28 01:51:10;;;;;;;10.00;8.23;;;12.60;99.90;;;;;;4884830;29;20132;-68
2023/09/28 01:53:42;;;;;;;11.00;8.60;;;12.60;99.90;;;;;;4857216;29;20049;-70
2023/09/28 01:56:14;;;;;;;10.77;8.23;;;12.60;99.90;;;;;;4878796;29;20434;-68
2023/09/28 01:58:41;;;;;;;8.82;7.93;;;12.50;99.90;;;;;;4879955;29;20554;-68
2023/09/28 02:01:08;;;;;;;9.73;8.30;;;12.50;99.90;;;;;;4882865;29;20075;-69
2023/09/28 02:03:40;;;;;;;10.15;8.57;;;12.50;99.90;;;;;;4876315;29;20048;-69
2023/09/28 02:06:12;;;;;;;9.10;8.20;;;12.40;99.90;;;;;;4877839;29;20467;-68
2023/09/28 02:08:45;;;;;;;9.18;8.18;;;12.40;99.90;;;;;;4879119;29;20524;-68
2023/09/28 02:11:17;;;;;;;10.38;8.50;;;12.40;99.90;;;;;;4879213;29;20036;-69
2023/09/28 02:13:49;;;;;;;9.18;7.93;;;12.30;99.90;;;;;;4870269;29;20048;-69
2023/09/28 02:16:22;;;;;;;8.23;7.32;;;12.30;99.90;;;;;;4880031;29;20084;-69
2023/09/28 02:18:49;;;;;;;9.05;7.28;;;12.30;99.90;;;;;;4874790;29;20047;-69
2023/09/28 02:21:21;;;;;;;11.63;8.25;;;12.30;99.90;;;;;;4853492;29;20049;-68
2023/09/28 02:23:48;;;;;;;8.48;7.57;;;12.30;99.90;;;;;;4884778;29;20041;-69
2023/09/28 02:26:20;;;;;;;10.73;8.20;;;12.40;99.90;;;;;;4887887;29;20049;-70
2023/09/28 02:28:52;;;;;;;11.38;8.43;;;12.40;99.90;;;;;;4878121;29;20041;-68
2023/09/28 02:31:19;;;;;;;10.98;8.60;;;12.40;99.90;;;;;;4855708;29;20052;-69
2023/09/28 02:33:47;;;;;;;11.07;8.20;;;12.40;99.90;;;;;;4881225;29;20048;-70
2023/09/28 02:36:19;;;;;;;9.50;7.53;;;12.50;99.90;;;;;;4874111;29;20056;-68
2023/09/28 02:38:46;;;;;;;10.13;7.57;;;12.50;99.90;;;;;;4864570;29;20132;-70
2023/09/28 02:41:20;;;;;;;;;;;12.50;99.90;;;;;;4861774;29;20049;-69
2023/09/28 02:43:52;;;;;;;9.55;8.07;;;12.50;99.90;;;;;;4876651;29;19924;-70
2023/09/28 02:46:26;;;;;;;9.18;7.88;;;12.50;99.90;;;;;;4860907;29;20045;-67
2023/09/28 02:48:58;;;;;;;8.10;7.30;;;12.40;99.90;;;;;;4876422;29;20052;-69
2023/09/28 02:51:30;;;;;;;8.68;7.78;;;12.40;99.90;;;;;;4889903;29;20630;-68
2023/09/28 02:54:03;;;;;;;6.85;6.20;;;12.30;99.90;;;;;;4868135;29;20060;-68
2023/09/28 02:56:35;;;;;;;8.47;7.37;;;12.20;99.90;;;;;;4886608;29;20052;-69
2023/09/28 02:59:08;;;;;;;9.40;7.32;;;12.20;99.90;;;;;;4863737;29;20052;-68
2023/09/28 03:01:40;;;;;;;7.80;7.05;;;12.20;99.90;;;;;;4882844;29;20518;-69
2023/09/28 03:04:12;;;;;;;7.60;6.25;;;12.10;99.90;;;;;;4878751;29;20059;-69
2023/09/28 03:06:46;;;;;;;7.30;6.47;;;12.10;99.90;;;;;;4875989;29;20146;-68
2023/09/28 03:09:19;;;;;;;7.70;6.57;;;12.10;99.90;;;;;;4877344;29;20058;-68
2023/09/28 03:11:51;;;;;;;6.55;5.95;;;12.10;99.90;;;;;;4866792;29;20049;-69
2023/09/28 03:14:19;;;;;;;6.85;6.22;;;12.10;99.90;;;;;;4877317;29;20063;-68
2023/09/28 03:16:50;;;;;;;7.50;6.68;;;12.00;99.90;;;;;;4860794;29;20139;-69
2023/09/28 03:19:23;;;;;;;7.38;6.70;;;12.00;99.90;;;;;;4874920;29;20048;-69
2023/09/28 03:21:54;;;;;;;8.93;7.63;;;12.00;99.90;;;;;;4851889;29;20051;-70
2023/09/28 03:24:26;;;;;;;8.02;7.22;;;11.90;99.90;;;;;;4863194;29;20091;-69
2023/09/28 03:26:58;;;;;;;8.38;7.60;;;11.90;99.90;;;;;;4887052;29;20047;-68
2023/09/28 03:29:25;;;;;;;11.57;9.13;;;11.90;99.90;;;;;;4884433;29;20075;-68
2023/09/28 03:31:57;;;;;;;10.35;8.52;;;11.80;99.90;;;;;;4872338;29;20593;-68
2023/09/28 03:34:29;;;;;;;8.68;7.88;;;11.80;99.90;;;;;;4882892;29;20418;-69
2023/09/28 03:36:56;;;;;;;10.52;9.30;;;11.80;99.90;;;;;;4869174;29;20041;-69
2023/09/28 03:39:28;;;;;;;11.60;9.52;;;11.80;99.90;;;;;;4894580;29;20032;-70
2023/09/28 03:42:00;;;;;;;9.60;8.63;;;11.80;99.90;;;;;;4877079;29;20513;-69
2023/09/28 03:44:32;;;;;;;8.88;7.95;;;11.80;99.90;;;;;;4861512;29;20041;-69
2023/09/28 03:47:04;;;;;;;11.10;8.57;;;11.80;99.90;;;;;;4879312;29;20501;-68
2023/09/28 03:49:37;;;;;;;10.00;8.30;;;11.80;99.90;;;;;;4865218;29;20051;-68
2023/09/28 03:52:09;;;;;;;9.98;8.65;;;11.80;99.90;;;;;;4882678;29;20063;-69
2023/09/28 03:54:40;;;;;;;10.63;8.55;;;11.80;99.90;;;;;;4883618;29;20040;-69
2023/09/28 03:57:12;;;;;;;10.20;8.05;;;11.70;99.90;;;;;;4887227;29;20044;-69
2023/09/28 03:59:44;;;;;;;9.52;8.52;;;11.70;99.90;;;;;;4876839;29;20135;-70
2023/09/28 04:02:13;;;;;;;10.15;8.15;;;11.70;99.90;;;;;;4885532;29;20051;-68
2023/09/28 04:04:44;;;;;;;9.70;8.52;;;11.70;99.90;;;;;;4890256;29;20045;-68
2023/09/28 04:07:16;;;;;;;10.07;8.63;;;11.70;99.90;;;;;;4870096;29;20505;-68
2023/09/28 04:09:48;;;;;;;9.45;8.18;;;11.70;99.90;;;;;;4885943;29;20045;-69
2023/09/28 04:12:20;;;;;;;9.57;8.68;;;11.70;99.90;;;;;;4867301;29;20047;-71
2023/09/28 04:14:52;;;;;;;7.18;6.35;;;11.60;99.90;;;;;;4875542;29;20125;-68
2023/09/28 04:17:24;;;;;;;9.90;8.43;;;11.80;99.90;;;;;;4888214;29;20049;-69
2023/09/28 04:19:56;;;;;;;11.70;9.05;;;12.10;99.90;;;;;;4887705;29;20040;-68
2023/09/28 04:22:28;;;;;;;9.75;8.75;;;12.10;99.90;;;;;;4886662;29;20041;-69
2023/09/28 04:24:54;;;;;;;11.10;8.40;;;12.10;99.90;;;;;;4870678;29;20441;-67
2023/09/28 04:27:27;;;;;;;11.23;9.02;;;12.00;99.90;;;;;;4869267;29;20055;-68
2023/09/28 04:29:59;;;;;;;10.33;9.20;;;12.00;99.90;;;;;;4862379;29;20052;-70
2023/09/28 04:32:31;;;;;;;12.25;9.85;;;12.00;99.90;;;;;;4872640;29;20053;-70
2023/09/28 04:35:10;;;;;;;9.57;8.57;;;12.00;99.90;;;;;;4873143;29;20060;-68
2023/09/28 04:37:42;;;;;;;10.43;8.63;;;11.90;99.90;;;;;;4891699;29;20044;-68
2023/09/28 04:40:14;;;;;;;10.52;9.30;;;11.90;99.90;;;;;;4870666;29;20040;-68
2023/09/28 04:42:42;;;;;;;12.68;9.45;;;11.80;99.90;;;;;;4890531;29;20067;-68
2023/09/28 04:45:14;;;;;;;11.68;9.60;;;11.80;99.90;;;;;;4876756;29;20522;-68
2023/09/28 04:47:47;;;;;;;13.90;9.95;;;11.80;99.90;;;;;;4889879;29;20040;-68
2023/09/28 04:50:19;;;;;;;17.50;11.02;;;11.90;99.90;;;;;;4871059;29;20132;-67
2023/09/28 04:52:48;;;;;;;18.60;11.82;;;12.00;99.90;;;;;;4884475;29;20052;-67
2023/09/28 04:55:21;;;;;;;17.77;11.15;;;12.00;99.90;;;;;;4890662;29;20505;-68
2023/09/28 04:57:53;;;;;;;17.33;10.85;;;12.00;99.90;;;;;;4890024;29;20044;-68
2023/09/28 05:00:26;;;;;;;21.55;10.38;;;12.00;99.90;;;;;;4888917;29;20417;-68
2023/09/28 05:03:01;;;;;;;22.27;11.18;;;12.00;99.90;;;;;;4887756;29;20048;-68
2023/09/28 05:05:33;;;;;;;17.35;11.55;;;12.00;99.90;;;;;;4875998;29;20047;-69
2023/09/28 05:08:05;;;;;;;22.55;12.32;;;12.00;99.90;;;;;;4887250;29;20127;-67
2023/09/28 05:10:37;;;;;;;19.55;12.70;;;11.90;99.90;;;;;;4867748;29;20143;-67
2023/09/28 05:13:05;;;;;;;23.00;12.75;;;11.90;99.90;;;;;;4878905;29;20052;-68
2023/09/28 05:15:36;;;;;;;23.90;11.63;;;11.90;99.90;;;;;;4886345;29;20059;-68
2023/09/28 05:18:08;;;;;;;15.45;10.52;;;11.70;99.90;;;;;;4881152;29;20527;-67
2023/09/28 05:20:40;;;;;;;20.63;10.90;;;11.60;99.90;;;;;;4865969;29;20552;-69
2023/09/28 05:23:07;;;;;;;22.05;11.55;;;11.60;99.90;;;;;;4883898;29;20067;-68
2023/09/28 05:25:43;;;;;;;16.30;10.32;;;11.60;99.90;;;;;;4881440;29;20045;-68
2023/09/28 05:28:15;;;;;;;14.57;9.68;;;11.60;99.90;;;;;;4873172;29;20056;-68
2023/09/28 05:30:47;;;;;;;15.48;10.00;;;11.50;99.90;;;;;;4889990;29;20055;-68
2023/09/28 05:33:19;;;;;;;15.63;10.38;;;11.50;99.90;;;;;;4890327;29;20055;-68
2023/09/28 05:35:51;;;;;;;21.55;12.38;;;11.50;99.90;;;;;;4865016;29;20182;-68
2023/09/28 05:38:23;;;;;;;25.15;13.65;;;11.50;99.90;;;;;;4892085;29;20052;-68
2023/09/28 05:40:55;;;;;;;23.80;13.48;;;11.60;99.90;;;;;;4881639;29;20049;-70
2023/09/28 05:43:27;;;;;;;26.48;15.00;;;11.60;99.90;;;;;;4874088;29;20051;-68
2023/09/28 05:45:59;;;;;;;24.08;12.40;;;11.70;99.90;;;;;;4863500;29;20536;-69
2023/09/28 05:48:31;;;;;;;16.73;12.07;;;11.70;99.90;;;;;;4879275;29;20033;-68
2023/09/28 05:50:59;;;;;;;27.80;12.50;;;11.70;99.90;;;;;;4868133;29;20060;-68
2023/09/28 05:53:31;;;;;;;11.80;9.40;;;11.80;99.90;;;;;;4862392;29;20051;-68
2023/09/28 05:56:03;;;;;;;13.23;9.98;;;11.90;99.90;;;;;;4867873;29;20513;-68
2023/09/28 05:58:30;;;;;;;13.65;9.50;;;12.10;99.90;;;;;;4883653;29;20139;-68
2023/09/28 06:01:08;;;;;;;13.32;10.68;;;12.10;99.90;;;;;;4867949;29;20144;-68
2023/09/28 06:03:39;;;;;;;14.30;10.30;;;12.20;99.90;;;;;;4886151;29;20045;-68
2023/09/28 06:06:16;;;;;;;13.40;10.75;;;12.10;99.90;;;;;;4868891;29;20070;-69
2023/09/28 06:08:44;;;;;;;13.75;11.02;;;12.20;99.90;;;;;;4891182;29;20066;-68
2023/09/28 06:11:12;;;;;;;13.23;11.65;;;12.20;99.90;;;;;;4874992;29;20479;-68
2023/09/28 06:13:41;;;;;;;14.52;11.10;;;12.20;99.90;;;;;;4877925;29;20635;-69
2023/09/28 06:16:14;;;;;;;13.77;10.95;;;12.20;99.90;;;;;;4887497;29;20055;-68
2023/09/28 06:18:46;;;;;;;;;;;12.20;99.90;;;;;;4894154;29;20091;-69
2023/09/28 06:21:18;;;;;;;13.15;10.40;;;12.20;99.90;;;;;;4871396;29;19924;-69
2023/09/28 06:23:50;;;;;;;15.25;11.07;;;12.30;99.90;;;;;;4865535;29;20430;-68
2023/09/28 06:26:21;;;;;;;12.55;10.10;;;12.40;99.90;;;;;;4883391;29;20048;-69
2023/09/28 06:28:54;;;;;;;15.10;11.25;;;12.40;99.90;;;;;;4871160;29;20516;-68
2023/09/28 06:31:21;;;;;;;16.33;11.18;;;12.50;99.90;;;;;;4878709;29;20140;-68
2023/09/28 06:33:53;;;;;;;13.75;10.23;;;12.60;99.90;;;;;;4886632;29;20061;-68
2023/09/28 06:36:25;;;;;;;15.57;12.98;;;12.60;99.90;;;;;;4879429;29;20048;-69
2023/09/28 06:38:57;;;;;;;19.27;14.20;;;12.70;99.90;;;;;;4866417;29;20052;-68
2023/09/28 06:41:25;;;;;;;15.63;12.55;;;12.70;99.90;;;;;;4883087;29;20383;-68
2023/09/28 06:43:51;;;;;;;16.55;11.40;;;12.70;99.90;;;;;;4881511;29;20143;-68
2023/09/28 06:46:23;;;;;;;13.50;11.88;;;12.70;99.90;;;;;;4888487;29;20037;-68
2023/09/28 06:48:55;;;;;;;18.23;10.95;;;12.70;99.90;;;;;;4876971;29;20081;-68
2023/09/28 06:51:27;;;;;;;13.88;10.45;;;12.70;99.90;;;;;;4863685;29;20044;-70
2023/09/28 06:53:59;;;;;;;17.25;11.43;;;12.80;99.90;;;;;;4893617;29;20479;-69
2023/09/28 06:56:31;;;;;;;20.08;12.50;;;12.80;99.90;;;;;;4883937;29;20049;-69
2023/09/28 06:59:03;;;;;;;44.10;21.65;;;12.80;99.90;;;;;;4863910;29;20056;-70
2023/09/28 07:01:35;;;;;;;176.18;75.88;;;12.80;99.90;;;;;;4888897;29;20405;-70
2023/09/28 07:04:02;;;;;;;75.60;39.95;;;12.90;99.90;;;;;;4887613;29;20033;-69
2023/09/28 07:06:34;;;;;;;37.13;22.98;;;12.90;99.90;;;;;;4872111;29;20041;-68
2023/09/28 07:09:06;;;;;;;19.70;14.68;;;12.90;99.90;;;;;;4883967;29;20052;-69
2023/09/28 07:11:38;;;;;;;13.82;12.30;;;12.90;99.90;;;;;;4866789;29;20049;-68
2023/09/28 07:14:10;;;;;;;15.85;12.52;;;12.90;99.90;;;;;;4881550;29;20045;-68
2023/09/28 07:16:38;;;;;;;12.40;11.15;;;12.90;99.90;;;;;;4890804;29;20064;-68
2023/09/28 07:19:06;;;;;;;14.40;12.25;;;12.90;99.90;;;;;;4879241;29;20052;-69
2023/09/28 07:21:38;;;;;;;17.65;10.98;;;12.90;99.90;;;;;;4880270;29;20055;-68
2023/09/28 07:24:06;;;;;;;16.25;12.38;;;13.00;99.90;;;;;;4893963;29;20041;-69
2023/09/28 07:26:38;;;;;;;18.58;13.93;;;13.00;99.90;;;;;;4874983;29;20045;-70
2023/09/28 07:29:10;;;;;;;17.17;14.82;;;13.00;99.90;;;;;;4877552;29;20051;-70
2023/09/28 07:31:37;;;;;;;16.38;14.45;;;13.10;99.90;;;;;;4877582;29;20053;-69
2023/09/28 07:34:09;;;;;;;16.00;13.70;;;13.10;99.90;;;;;;4853619;29;20068;-70
2023/09/28 07:36:41;;;;;;;15.00;11.23;;;13.20;99.90;;;;;;4867539;29;20053;-70
2023/09/28 07:39:13;;;;;;;11.18;9.70;;;13.30;99.90;;;;;;4888758;29;20116;-70
2023/09/28 07:41:45;;;;;;;10.80;9.70;;;13.40;99.90;;;;;;4881937;29;20136;-68
2023/09/28 07:44:12;;;;;;;11.93;9.00;;;13.50;99.90;;;;;;4881534;29;20048;-69
2023/09/28 07:46:45;;;;;;;12.63;10.45;;;13.70;99.90;;;;;;4879939;29;20413;-70
2023/09/28 07:49:17;;;;;;;15.38;11.27;;;13.90;99.90;;;;;;4875637;29;20044;-69
2023/09/28 07:51:44;;;;;;;13.40;11.27;;;14.00;99.90;;;;;;4878815;29;20063;-69
2023/09/28 07:54:16;;;;;;;12.57;11.15;;;14.20;99.90;;;;;;4877891;29;20040;-69
2023/09/28 07:56:48;;;;;;;15.82;10.57;;;14.30;99.90;;;;;;4864018;29;20063;-70
2023/09/28 07:59:20;;;;;;;11.60;10.38;;;14.40;99.90;;;;;;4882134;29;20053;-68
2023/09/28 08:01:52;;;;;;;12.88;10.38;;;14.60;99.90;;;;;;4867546;29;20407;-68
2023/09/28 08:04:24;;;;;;;13.98;11.20;;;14.70;99.90;;;;;;4885190;29;20048;-70
2023/09/28 08:06:57;;;;;;;11.55;9.40;;;14.90;99.90;;;;;;4862286;29;20045;-69
2023/09/28 08:09:29;;;;;;;12.88;8.85;;;15.00;99.90;;;;;;4888605;29;20036;-68
2023/09/28 08:11:56;;;;;;;11.85;8.98;;;15.20;99.90;;;;;;4877047;29;20524;-69
2023/09/28 08:14:28;;;;;;;10.25;9.23;;;15.30;99.90;;;;;;4881598;29;20049;-70
2023/09/28 08:17:00;;;;;;;11.55;9.57;;;15.40;99.90;;;;;;4880110;29;20049;-70
2023/09/28 08:19:32;;;;;;;10.63;8.75;;;15.60;99.90;;;;;;4894116;29;20049;-70
2023/09/28 08:22:05;;;;;;;26.73;10.52;;;15.80;99.90;;;;;;4897727;29;20049;-70
2023/09/28 08:24:37;;;;;;;11.50;9.57;;;16.00;99.90;;;;;;4889507;29;20040;-69
2023/09/28 08:27:09;;;;;;;12.40;9.48;;;16.10;99.90;;;;;;4882380;29;20059;-69
2023/09/28 08:29:37;;;;;;;11.60;10.40;;;16.30;99.90;;;;;;4895462;29;20043;-70
2023/09/28 08:32:04;;;;;;;12.60;9.25;;;16.40;99.90;;;;;;4886589;29;20049;-70
2023/09/28 08:34:36;;;;;;;12.65;9.45;;;16.50;99.90;;;;;;4886890;29;20041;-69
2023/09/28 08:37:08;;;;;;;13.52;9.95;;;16.70;99.90;;;;;;4864723;29;20148;-70
2023/09/28 08:39:40;;;;;;;10.60;8.73;;;16.90;99.90;;;;;;4891013;29;20091;-69
2023/09/28 08:42:14;;;;;;;11.48;7.75;;;17.10;99.90;;;;;;4876532;29;20044;-70
2023/09/28 08:44:47;;;;;;;8.23;6.70;;;17.30;99.90;;;;;;4882364;29;20543;-70
2023/09/28 08:47:20;;;;;;;12.38;7.18;;;17.50;99.90;;;;;;4863795;29;20049;-70
2023/09/28 08:49:54;;;;;;;12.27;7.13;;;17.70;99.90;;;;;;4882454;29;20041;-70
2023/09/28 08:52:28;;;;;;;8.77;6.68;;;17.90;99.90;;;;;;4880932;29;20056;-68
2023/09/28 08:55:00;;;;;;;8.40;6.05;;;18.00;99.90;;;;;;4897606;29;20291;-68
2023/09/28 08:57:35;;;;;;;10.80;6.72;;;18.10;99.90;;;;;;4896210;29;20071;-69
2023/09/28 09:00:13;;;;;;;8.00;5.55;;;18.20;99.90;;;;;;4878975;29;20072;-68
2023/09/28 09:02:45;;;;;;;7.32;6.15;;;18.40;99.90;;;;;;4893010;29;20131;-69
2023/09/28 09:05:12;;;;;;;8.93;6.60;;;18.40;99.90;;;;;;4880346;29;20052;-68
2023/09/28 09:07:44;;;;;;;8.10;5.80;;;18.60;99.90;;;;;;4880409;29;20421;-69
2023/09/28 09:10:18;;;;;;;9.95;5.65;;;18.70;99.90;;;;;;4888358;29;20044;-70
2023/09/28 09:12:45;;;;;;;7.10;6.22;;;18.80;99.90;;;;;;4870182;29;20458;-69
2023/09/28 09:15:17;;;;;;;8.93;6.57;;;18.90;99.90;;;;;;4885567;29;20056;-69
2023/09/28 09:17:44;;;;;;;8.93;5.93;;;19.00;99.90;;;;;;4866878;29;20387;-68
2023/09/28 09:20:16;;;;;;;8.73;6.13;;;19.00;99.90;;;;;;4882340;29;20041;-70
2023/09/28 09:22:48;;;;;;;8.45;5.57;;;19.10;99.90;;;;;;4880641;29;20053;-68
2023/09/28 09:25:20;;;;;;;9.98;5.88;;;19.20;99.90;;;;;;4894652;29;20048;-70
2023/09/28 09:27:52;;;;;;;8.85;5.65;;;19.20;99.90;;;;;;4880217;29;20051;-68
2023/09/28 09:30:20;;;;;;;8.15;5.80;;;19.30;99.90;;;;;;4894987;29;20059;-69
2023/09/28 09:32:53;;;;;;;8.38;5.82;;;19.50;99.90;;;;;;4892210;29;20040;-69
2023/09/28 09:35:27;;;;;;;;;;;19.50;99.90;;;;;;4880059;29;20045;-70
2023/09/28 09:37:59;;;;;;;8.98;6.25;;;19.60;99.90;;;;;;4869745;29;20388;-68
2023/09/28 09:40:32;;;;;;;10.50;5.50;;;19.70;99.90;;;;;;4879574;29;20144;-68
2023/09/28 09:43:08;;;;;;;8.05;5.85;;;19.80;99.90;;;;;;4885995;29;20305;-68
2023/09/28 09:45:38;;;;;;;8.85;5.28;;;19.90;99.90;;;;;;4879327;29;20045;-68
2023/09/28 09:48:11;;;;;;;6.47;5.13;;;20.00;99.90;;;;;;4851165;29;20052;-70
2023/09/28 09:50:39;;;;;;;6.13;5.00;;;20.10;99.90;;;;;;4894785;29;20060;-70
2023/09/28 09:53:12;;;;;;;7.85;5.10;;;20.20;99.90;;;;;;4896550;29;20063;-69
2023/09/28 09:55:48;;;;;;;6.00;4.80;;;20.30;99.90;;;;;;4869296;29;20076;-68
2023/09/28 09:58:27;;;;;;;6.35;4.68;;;20.30;99.90;;;;;;4864252;29;20421;-69
2023/09/28 10:01:00;;;;;;;5.82;4.93;;;20.40;99.90;;;;;;4881102;29;20049;-70
2023/09/28 10:03:33;;;;;;;6.28;4.60;;;20.50;99.90;;;;;;4884178;29;20057;-69
2023/09/28 10:06:05;;;;;;;6.43;4.55;;;20.70;99.90;;;;;;4885685;29;20510;-69
2023/09/28 10:08:39;;;;;;;6.13;5.03;;;20.80;99.90;;;;;;4885319;29;20056;-69
2023/09/28 10:11:12;;;;;;;5.75;4.25;;;20.90;99.90;;;;;;4889421;29;20064;-68
2023/09/28 10:13:44;;;;;;;;;;;21.00;99.90;;;;;;4864965;29;20095;-68
2023/09/28 10:16:17;;;;;;;8.63;5.82;;;21.10;99.90;;;;;;4874515;29;20338;-68
2023/09/28 10:18:47;;;;;;;5.78;5.18;;;21.20;99.90;;;;;;4864384;29;20441;-68
2023/09/28 10:21:20;;;;;;;6.55;5.07;;;21.20;99.90;;;;;;4893395;29;20049;-68
2023/09/28 10:23:57;;;;;;;9.30;5.50;;;21.30;99.90;;;;;;4880110;29;20051;-70
2023/09/28 10:26:31;;;;;;;8.80;4.85;;;21.50;99.90;;;;;;4879975;29;20119;-68
2023/09/28 10:29:04;;;;;;;8.20;5.25;;;21.60;99.90;;;;;;4895840;29;20143;-68
2023/09/28 10:31:39;;;;;;;5.65;4.50;;;21.60;99.90;;;;;;4881947;29;20049;-68
2023/09/28 10:34:19;;;;;;;6.15;4.95;;;21.70;99.90;;;;;;4863402;29;20055;-68
2023/09/28 10:37:07;;;;;;;5.82;4.70;;;21.70;99.90;;;;;;4871564;29;20049;-68
2023/09/28 10:39:43;;;;;;;5.70;4.40;;;21.70;99.90;;;;;;4871770;29;20044;-69
2023/09/28 10:42:15;;;;;;;5.93;4.43;;;21.80;99.90;;;;;;4887631;29;20064;-69
2023/09/28 10:44:50;;;;;;;5.68;4.18;;;21.80;99.90;;;;;;4885719;29;20057;-69
2023/09/28 10:47:19;;;;;;;4.97;4.40;;;21.90;99.90;;;;;;4884213;29;20135;-68
2023/09/28 10:49:58;;;;;;;4.85;3.97;;;21.90;99.90;;;;;;4876018;29;20100;-72
2023/09/28 10:52:30;;;;;;;10.88;4.10;;;22.00;99.90;;;;;;4883611;29;20051;-71
2023/09/28 10:54:57;;;;;;;5.60;4.35;;;22.10;99.90;;;;;;4885023;29;20083;-69
2023/09/28 10:57:31;;;;;;;6.00;4.50;;;22.20;99.90;;;;;;4884220;29;20052;-68
2023/09/28 11:00:00;;;;;;;8.13;4.35;;;22.30;99.90;;;;;;4880351;29;20532;-68
2023/09/28 11:02:36;;;;;;;5.38;3.78;;;22.30;99.90;;;;;;4884514;29;20045;-69
2023/09/28 11:05:09;;;;;;;6.00;4.20;;;22.30;99.90;;;;;;4869632;29;20045;-69
2023/09/28 11:07:41;;;;;;;4.88;4.25;;;22.40;99.90;;;;;;4883844;29;20501;-69
2023/09/28 11:10:14;;;;;;;5.38;4.22;;;22.40;99.90;;;;;;4870999;29;20055;-70
2023/09/28 11:12:41;;;;;;;6.95;4.70;;;22.40;99.90;;;;;;4888278;29;20041;-68
2023/09/28 11:15:14;;;;;;;6.22;4.78;;;22.40;99.90;;;;;;4883554;29;20131;-69
2023/09/28 11:17:42;;;;;;;6.57;4.60;;;22.50;99.90;;;;;;4883233;29;20040;-68
2023/09/28 11:20:14;;;;;;;6.35;4.82;;;22.50;99.90;;;;;;4898697;29;20572;-68
2023/09/28 11:22:52;;;;;;;6.50;3.37;;;22.60;99.90;;;;;;4900030;29;20046;-68
2023/09/28 11:25:26;;;;;;;5.45;3.97;;;22.70;99.90;;;;;;4899062;29;20506;-68
2023/09/28 11:27:58;;;;;;;4.10;3.53;;;22.70;99.90;;;;;;4886916;29;20053;-67
2023/09/28 11:30:31;;;;;;;4.45;3.70;;;22.80;99.90;;;;;;4893968;29;20041;-68
2023/09/28 11:33:04;;;;;;;3.67;3.20;;;22.90;99.90;;;;;;4901366;29;20076;-68
2023/09/28 11:35:38;;;;;;;;;;;22.90;99.90;;;;;;4870484;29;20403;-70
2023/09/28 11:38:10;;;;;;;4.38;3.53;;;23.00;99.90;;;;;;4889943;29;19928;-70
2023/09/28 11:40:43;;;;;;;7.05;3.40;;;23.10;99.90;;;;;;4856853;29;20055;-68
2023/09/28 11:43:15;;;;;;;7.28;3.70;;;23.20;99.90;;;;;;4893220;29;20044;-69
2023/09/28 11:45:42;;;;;;;5.35;3.42;;;23.30;99.90;;;;;;4882658;29;20049;-70
2023/09/28 11:48:09;;;;;;;5.13;3.50;;;23.40;99.90;;;;;;4900150;29;20047;-69
2023/09/28 11:50:42;;;;;;;6.50;3.42;;;23.40;99.90;;;;;;4868197;29;20040;-70
2023/09/28 11:53:15;;;;;;;4.68;3.40;;;23.50;99.90;;;;;;4890218;29;20216;-68
2023/09/28 11:55:47;;;;;;;7.17;4.23;;;23.50;99.90;;;;;;4880391;29;20399;-69
2023/09/28 11:58:22;;;;;;;5.93;3.70;;;23.50;99.90;;;;;;4877495;29;20049;-69
2023/09/28 12:00:55;;;;;;;5.28;3.65;;;23.60;99.90;;;;;;4879189;29;20041;-70
2023/09/28 12:03:28;;;;;;;5.15;3.75;;;23.60;99.90;;;;;;4873052;29;20044;-69
2023/09/28 12:06:00;;;;;;;5.25;3.67;;;23.70;99.90;;;;;;4871594;29;20120;-70
2023/09/28 12:08:28;;;;;;;6.88;4.40;;;23.70;99.90;;;;;;4889710;29;20135;-70
2023/09/28 12:11:00;;;;;;;4.63;3.40;;;23.80;99.90;;;;;;4875374;29;20395;-70
2023/09/28 12:13:32;;;;;;;5.90;3.90;;;23.90;99.90;;;;;;4891751;29;20052;-68
2023/09/28 12:16:08;;;;;;;5.82;3.72;;;24.00;99.90;;;;;;4875275;29;20057;-69
2023/09/28 12:18:40;;;;;;;4.60;3.47;;;24.00;99.90;;;;;;4891038;29;20300;-68
2023/09/28 12:21:12;;;;;;;3.97;3.08;;;24.00;99.90;;;;;;4878894;29;20048;-69
2023/09/28 12:23:40;;;;;;;4.97;3.42;;;24.00;99.90;;;;;;4892617;29;20033;-69
2023/09/28 12:26:07;;;;;;;6.53;3.80;;;24.00;99.90;;;;;;4889195;29;20081;-70
2023/09/28 12:28:41;;;;;;;5.03;3.58;;;24.10;99.90;;;;;;4892579;29;20044;-68
2023/09/28 12:31:13;;;;;;;5.50;3.47;;;24.10;99.90;;;;;;4864778;29;20052;-70
2023/09/28 12:33:45;;;;;;;4.57;3.50;;;24.20;99.90;;;;;;4894738;29;20041;-67
2023/09/28 12:36:12;;;;;;;4.78;3.30;;;24.30;99.90;;;;;;4868095;29;20061;-67
2023/09/28 12:38:39;;;;;;;6.38;3.45;;;24.40;99.90;;;;;;4885920;29;20036;-68
2023/09/28 12:41:11;;;;;;;5.63;3.80;;;24.50;99.90;;;;;;4880709;29;20168;-68
2023/09/28 12:43:46;;;;;;;5.70;3.58;;;24.50;99.90;;;;;;4867253;29;20045;-68
2023/09/28 12:46:14;;;;;;;4.50;2.53;;;24.60;99.90;;;;;;4872967;29;20048;-68
2023/09/28 12:48:46;;;;;;;6.97;3.00;;;24.60;99.90;;;;;;4859962;29;20041;-68
2023/09/28 12:51:18;;;;;;;8.38;3.80;;;24.60;99.90;;;;;;4848035;29;20308;-68
2023/09/28 12:53:50;;;;;;;5.57;3.38;;;24.60;99.90;;;;;;4876060;29;20041;-69
2023/09/28 12:56:23;;;;;;;4.28;2.95;;;24.60;99.90;;;;;;4867657;29;20081;-67
2023/09/28 12:58:55;;;;;;;5.10;3.08;;;24.80;99.90;;;;;;4887381;29;20144;-69
2023/09/28 13:01:27;;;;;;;6.05;3.00;;;24.80;99.90;;;;;;4886834;29;20045;-68
2023/09/28 13:03:59;;;;;;;3.77;2.20;;;24.80;99.90;;;;;;4882311;29;20048;-69